createdAt,value
2017-12-05T00:00:33.400Z,0
2017-12-05T00:01:43.678Z,0
2017-12-05T00:02:53.665Z,0
2017-12-05T00:04:03.704Z,0
2017-12-05T00:05:14.132Z,0
2017-12-05T00:06:24.087Z,0
2017-12-05T00:07:34.264Z,0
2017-12-05T00:08:44.606Z,0
2017-12-05T00:09:54.891Z,0
2017-12-05T00:11:05.168Z,0
2017-12-05T00:12:15.167Z,0
2017-12-05T00:13:25.452Z,0
2017-12-05T00:14:36.803Z,0
2017-12-05T00:15:47.067Z,0
2017-12-05T00:16:57.360Z,0
2017-12-05T00:18:07.647Z,0
2017-12-05T00:19:18.138Z,0
2017-12-05T00:20:27.801Z,0
2017-12-05T00:21:37.967Z,0
2017-12-05T00:22:47.701Z,0
2017-12-05T00:23:57.603Z,0
2017-12-05T00:25:07.912Z,0
2017-12-05T00:26:18.216Z,0
2017-12-05T00:27:28.728Z,0
2017-12-05T00:28:38.989Z,0
2017-12-05T00:29:48.730Z,0
2017-12-05T00:30:58.739Z,0
2017-12-05T00:32:08.760Z,0
2017-12-05T00:33:18.809Z,0
2017-12-05T00:34:28.859Z,0
2017-12-05T00:35:39.256Z,0
2017-12-05T00:36:49.225Z,0
2017-12-05T00:37:59.330Z,0
2017-12-05T00:39:09.624Z,0
2017-12-05T00:40:19.907Z,0
2017-12-05T00:41:30.280Z,0
2017-12-05T00:42:40.614Z,0
2017-12-05T00:43:50.912Z,0
2017-12-05T00:45:00.293Z,0
2017-12-05T00:46:10.394Z,0
2017-12-05T00:47:20.644Z,0
2017-12-05T00:48:30.922Z,0
2017-12-05T00:50:13.068Z,0
2017-12-05T00:51:23.079Z,0
2017-12-05T00:52:33.081Z,0
2017-12-05T00:53:43.097Z,0
2017-12-05T00:54:53.370Z,0
2017-12-05T00:56:03.644Z,0
2017-12-05T00:57:14.038Z,0
2017-12-05T00:58:23.741Z,0
2017-12-05T00:59:34.009Z,0
2017-12-05T01:00:44.456Z,0
2017-12-05T01:01:54.867Z,0
2017-12-05T01:03:05.137Z,0
2017-12-05T01:04:15.440Z,0
2017-12-05T01:05:25.713Z,0
2017-12-05T01:06:37.016Z,0
2017-12-05T01:07:47.020Z,0
2017-12-05T01:09:29.206Z,0
2017-12-05T01:10:39.614Z,0
2017-12-05T01:11:49.919Z,0
2017-12-05T01:12:59.964Z,0
2017-12-05T01:14:10.289Z,0
2017-12-05T01:15:20.028Z,0
2017-12-05T01:16:30.266Z,0
2017-12-05T01:17:40.525Z,0
2017-12-05T01:18:50.783Z,0
2017-12-05T01:20:00.682Z,0
2017-12-05T01:21:11.021Z,0
2017-12-05T01:22:21.283Z,0
2017-12-05T01:23:31.550Z,0
2017-12-05T01:24:41.219Z,0
2017-12-05T01:25:51.529Z,0
2017-12-05T01:27:01.847Z,0
2017-12-05T01:28:11.690Z,0
2017-12-05T01:29:21.387Z,0
2017-12-05T01:30:31.661Z,0
2017-12-05T01:31:41.583Z,0
2017-12-05T01:32:51.921Z,0
2017-12-05T01:34:02.200Z,0
2017-12-05T01:35:12.730Z,0
2017-12-05T01:36:23.055Z,0
2017-12-05T01:37:33.103Z,0
2017-12-05T01:38:43.386Z,0
2017-12-05T01:39:53.883Z,0
2017-12-05T01:41:04.392Z,0
2017-12-05T01:42:14.446Z,0
2017-12-05T01:43:25.151Z,0
2017-12-05T01:44:35.446Z,0
2017-12-05T01:45:45.706Z,0
2017-12-05T01:46:55.676Z,0
2017-12-05T01:48:05.695Z,0
2017-12-05T01:49:15.679Z,0
2017-12-05T01:50:25.953Z,0
2017-12-05T01:51:36.009Z,0
2017-12-05T01:52:46.274Z,0
2017-12-05T01:53:56.017Z,0
2017-12-05T01:55:06.324Z,0
2017-12-05T01:56:16.600Z,0
2017-12-05T01:57:27.123Z,0
2017-12-05T01:58:37.201Z,0
2017-12-05T01:59:47.501Z,0
2017-12-05T02:00:57.751Z,0
2017-12-05T02:02:08.116Z,0
2017-12-05T02:03:18.449Z,0
2017-12-05T02:04:29.003Z,0
2017-12-05T02:05:39.342Z,0
2017-12-05T02:06:49.246Z,0
2017-12-05T02:07:59.531Z,0
2017-12-05T02:09:09.849Z,0
2017-12-05T02:10:20.100Z,0
2017-12-05T02:11:30.205Z,0
2017-12-05T02:12:40.484Z,0
2017-12-05T02:13:50.754Z,0
2017-12-05T02:15:01.089Z,0
2017-12-05T02:16:11.160Z,0
2017-12-05T02:17:21.147Z,0
2017-12-05T02:18:31.186Z,0
2017-12-05T02:19:41.477Z,0
2017-12-05T02:20:51.517Z,0
2017-12-05T02:22:01.788Z,0
2017-12-05T02:23:12.104Z,0
2017-12-05T02:24:22.386Z,0
2017-12-05T02:25:32.799Z,0
2017-12-05T02:26:43.165Z,0
2017-12-05T02:27:53.197Z,0
2017-12-05T02:29:03.496Z,0
2017-12-05T02:30:13.820Z,0
2017-12-05T02:31:24.097Z,0
2017-12-05T02:32:34.308Z,0
2017-12-05T02:33:44.623Z,0
2017-12-05T02:34:54.554Z,0
2017-12-05T02:36:04.834Z,0
2017-12-05T02:37:15.089Z,0
2017-12-05T02:38:24.988Z,0
2017-12-05T02:39:35.267Z,0
2017-12-05T02:40:45.041Z,0
2017-12-05T02:41:55.013Z,0
2017-12-05T02:43:05.278Z,0
2017-12-05T02:44:15.049Z,0
2017-12-05T02:45:25.328Z,0
2017-12-05T02:46:35.602Z,0
2017-12-05T02:47:45.860Z,0
2017-12-05T02:48:56.255Z,0
2017-12-05T02:50:06.611Z,0
2017-12-05T02:51:16.920Z,0
2017-12-05T02:52:26.924Z,0
2017-12-05T02:53:36.961Z,0
2017-12-05T02:54:47.236Z,0
2017-12-05T02:55:57.557Z,0
2017-12-05T02:57:07.070Z,0
2017-12-05T02:58:17.398Z,0
2017-12-05T02:59:27.776Z,0
2017-12-05T03:00:38.061Z,0
2017-12-05T03:01:48.404Z,0
2017-12-05T03:02:58.481Z,0
2017-12-05T03:04:08.498Z,0
2017-12-05T03:05:18.783Z,0
2017-12-05T03:06:28.771Z,0
2017-12-05T03:07:39.016Z,0
2017-12-05T03:08:49.026Z,0
2017-12-05T03:09:59.307Z,0
2017-12-05T03:11:09.596Z,0
2017-12-05T03:12:19.849Z,0
2017-12-05T03:13:31.074Z,0
2017-12-05T03:14:41.058Z,0
2017-12-05T03:15:51.423Z,0
2017-12-05T03:17:01.713Z,0
2017-12-05T03:18:11.725Z,0
2017-12-05T03:19:21.708Z,0
2017-12-05T03:20:32.189Z,0
2017-12-05T03:21:42.579Z,0
2017-12-05T03:22:52.853Z,0
2017-12-05T03:24:02.853Z,0
2017-12-05T03:25:12.861Z,0
2017-12-05T03:26:23.366Z,0
2017-12-05T03:27:33.282Z,0
2017-12-05T03:28:43.524Z,0
2017-12-05T03:29:53.823Z,0
2017-12-05T03:31:04.096Z,0
2017-12-05T03:32:14.538Z,0
2017-12-05T03:33:24.473Z,0
2017-12-05T03:34:34.547Z,0
2017-12-05T03:35:44.804Z,0
2017-12-05T03:36:55.084Z,0
2017-12-05T03:38:05.691Z,0
2017-12-05T03:39:15.940Z,0
2017-12-05T03:40:26.203Z,0
2017-12-05T03:41:36.479Z,0
2017-12-05T03:42:46.358Z,0
2017-12-05T03:43:56.385Z,0
2017-12-05T03:45:06.403Z,0
2017-12-05T03:46:16.445Z,0
2017-12-05T03:47:27.373Z,0
2017-12-05T03:48:37.694Z,0
2017-12-05T03:49:47.999Z,0
2017-12-05T03:50:58.048Z,0
2017-12-05T03:52:08.419Z,0
2017-12-05T03:53:18.435Z,0
2017-12-05T03:54:28.735Z,0
2017-12-05T03:55:39.063Z,0
2017-12-05T03:56:49.096Z,0
2017-12-05T03:57:58.814Z,0
2017-12-05T03:59:08.791Z,0
2017-12-05T04:00:19.007Z,0
2017-12-05T04:01:29.297Z,0
2017-12-05T04:02:39.293Z,0
2017-12-05T04:03:49.563Z,0
2017-12-05T04:04:59.832Z,0
2017-12-05T04:06:09.557Z,0
2017-12-05T04:07:19.832Z,0
2017-12-05T04:08:30.076Z,0
2017-12-05T04:09:40.161Z,0
2017-12-05T04:10:50.415Z,0
2017-12-05T04:12:00.371Z,0
2017-12-05T04:13:12.081Z,0
2017-12-05T04:14:22.385Z,0
2017-12-05T04:15:32.384Z,0
2017-12-05T04:16:42.714Z,0
2017-12-05T04:17:53.162Z,0
2017-12-05T04:19:03.468Z,0
2017-12-05T04:20:13.556Z,0
2017-12-05T04:21:24.167Z,0
2017-12-05T04:22:33.963Z,0
2017-12-05T04:23:44.048Z,0
2017-12-05T04:24:54.302Z,0
2017-12-05T04:26:04.677Z,0
2017-12-05T04:27:14.461Z,0
2017-12-05T04:28:24.742Z,0
2017-12-05T04:29:35.006Z,0
2017-12-05T04:30:45.129Z,0
2017-12-05T04:31:55.245Z,0
2017-12-05T04:33:05.605Z,0
2017-12-05T04:34:15.644Z,0
2017-12-05T04:35:26.195Z,0
2017-12-05T04:36:36.193Z,0
2017-12-05T04:37:46.343Z,0
2017-12-05T04:38:56.708Z,0
2017-12-05T04:40:06.701Z,0
2017-12-05T04:41:17.089Z,0
2017-12-05T04:42:27.344Z,0
2017-12-05T04:43:37.344Z,0
2017-12-05T04:44:47.824Z,0
2017-12-05T04:45:58.056Z,0
2017-12-05T04:47:08.320Z,0
2017-12-05T04:48:18.670Z,0
2017-12-05T04:49:28.973Z,0
2017-12-05T04:50:39.268Z,0
2017-12-05T04:51:49.769Z,0
2017-12-05T04:53:00.032Z,0
2017-12-05T04:54:09.910Z,0
2017-12-05T04:55:19.660Z,0
2017-12-05T04:56:29.963Z,0
2017-12-05T04:57:40.232Z,0
2017-12-05T04:58:50.536Z,0
2017-12-05T05:00:01.099Z,0
2017-12-05T05:01:11.381Z,0
2017-12-05T05:02:21.988Z,0
2017-12-05T05:03:32.251Z,0
2017-12-05T05:04:42.516Z,0
2017-12-05T05:05:52.835Z,0
2017-12-05T05:07:02.557Z,0
2017-12-05T05:08:12.817Z,0
2017-12-05T05:09:23.085Z,0
2017-12-05T05:10:33.357Z,0
2017-12-05T05:11:43.689Z,0
2017-12-05T05:12:54.539Z,0
2017-12-05T05:14:04.846Z,0
2017-12-05T05:15:14.860Z,0
2017-12-05T05:16:24.964Z,0
2017-12-05T05:17:35.238Z,0
2017-12-05T05:18:45.533Z,0
2017-12-05T05:19:55.883Z,0
2017-12-05T05:21:06.036Z,0
2017-12-05T05:22:16.155Z,0
2017-12-05T05:23:26.426Z,0
2017-12-05T05:24:36.825Z,0
2017-12-05T05:25:46.864Z,0
2017-12-05T05:26:57.292Z,0
2017-12-05T05:28:07.541Z,0
2017-12-05T05:29:17.579Z,0
2017-12-05T05:30:27.845Z,0
2017-12-05T05:31:38.224Z,0
2017-12-05T05:32:48.271Z,0
2017-12-05T05:33:58.693Z,0
2017-12-05T05:35:08.972Z,0
2017-12-05T05:36:19.369Z,0
2017-12-05T05:37:29.719Z,0
2017-12-05T05:38:39.713Z,0
2017-12-05T05:39:49.826Z,0
2017-12-05T05:41:00.116Z,0
2017-12-05T05:42:10.438Z,0
2017-12-05T05:43:20.723Z,0
2017-12-05T05:44:30.734Z,0
2017-12-05T05:45:40.802Z,0
2017-12-05T05:46:50.779Z,0
2017-12-05T05:48:00.703Z,0
2017-12-05T05:49:10.982Z,0
2017-12-05T05:50:20.992Z,0
2017-12-05T05:51:31.025Z,0
2017-12-05T05:52:41.326Z,0
2017-12-05T05:53:51.590Z,0
2017-12-05T05:55:01.914Z,0
2017-12-05T05:56:12.200Z,0
2017-12-05T05:57:22.527Z,0
2017-12-05T05:58:32.007Z,0
2017-12-05T05:59:41.678Z,0
2017-12-05T06:00:52.014Z,0
2017-12-05T06:02:02.087Z,0
2017-12-05T06:03:12.083Z,0
2017-12-05T06:04:22.472Z,0
2017-12-05T06:05:32.773Z,0
2017-12-05T06:06:42.954Z,0
2017-12-05T06:07:52.934Z,0
2017-12-05T06:09:03.218Z,0
2017-12-05T06:10:13.511Z,0
2017-12-05T06:11:23.780Z,0
2017-12-05T06:12:34.066Z,0
2017-12-05T06:13:44.061Z,0
2017-12-05T06:14:54.583Z,0
2017-12-05T06:16:05.151Z,0
2017-12-05T06:17:15.408Z,0
2017-12-05T06:18:25.416Z,0
2017-12-05T06:19:35.720Z,0
2017-12-05T06:20:45.999Z,0
2017-12-05T06:21:56.281Z,0
2017-12-05T06:23:06.554Z,0
2017-12-05T06:24:16.841Z,0
2017-12-05T06:25:26.842Z,0
2017-12-05T06:26:37.155Z,0
2017-12-05T06:27:46.883Z,0
2017-12-05T06:28:56.528Z,0
2017-12-05T06:30:06.897Z,0
2017-12-05T06:31:16.619Z,0
2017-12-05T06:32:26.619Z,0
2017-12-05T06:33:37.012Z,0
2017-12-05T06:34:47.298Z,0
2017-12-05T06:35:56.974Z,4
2017-12-05T06:37:07.311Z,0
2017-12-05T06:38:17.370Z,4
2017-12-05T06:39:27.376Z,4
2017-12-05T06:40:37.853Z,4
2017-12-05T06:41:48.124Z,4
2017-12-05T06:42:58.395Z,4
2017-12-05T06:44:08.428Z,8
2017-12-05T06:45:18.702Z,8
2017-12-05T06:46:29.007Z,16
2017-12-05T06:47:39.306Z,12
2017-12-05T06:48:49.574Z,20
2017-12-05T06:49:59.610Z,20
2017-12-05T06:51:09.908Z,20
2017-12-05T06:52:19.909Z,28
2017-12-05T06:53:30.196Z,32
2017-12-05T06:54:40.451Z,36
2017-12-05T06:55:50.715Z,36
2017-12-05T06:57:00.970Z,44
2017-12-05T06:58:11.300Z,68
2017-12-05T06:59:21.347Z,64
2017-12-05T07:00:31.682Z,64
2017-12-05T07:01:42.000Z,72
2017-12-05T07:02:52.046Z,84
2017-12-05T07:04:02.289Z,96
2017-12-05T07:05:12.577Z,120
2017-12-05T07:06:22.848Z,116
2017-12-05T07:07:33.158Z,104
2017-12-05T07:08:43.586Z,120
2017-12-05T07:09:53.875Z,156
2017-12-05T07:11:04.150Z,192
2017-12-05T07:12:14.779Z,180
2017-12-05T07:13:25.085Z,184
2017-12-05T07:14:35.171Z,156
2017-12-05T07:15:45.484Z,144
2017-12-05T07:16:55.799Z,140
2017-12-05T07:18:06.056Z,128
2017-12-05T07:19:16.554Z,124
2017-12-05T07:20:26.582Z,152
2017-12-05T07:21:36.842Z,152
2017-12-05T07:22:47.151Z,152
2017-12-05T07:23:57.533Z,180
2017-12-05T07:25:07.543Z,156
2017-12-05T07:26:17.841Z,180
2017-12-05T07:27:28.144Z,156
2017-12-05T07:28:38.164Z,168
2017-12-05T07:29:48.430Z,200
2017-12-05T07:30:58.698Z,168
2017-12-05T07:32:09.076Z,192
2017-12-05T07:33:19.368Z,188
2017-12-05T07:34:29.592Z,192
2017-12-05T07:35:40.364Z,228
2017-12-05T07:36:50.840Z,252
2017-12-05T07:38:01.213Z,272
2017-12-05T07:39:11.507Z,316
2017-12-05T07:40:21.776Z,308
2017-12-05T07:41:32.081Z,304
2017-12-05T07:42:42.418Z,360
2017-12-05T07:43:52.764Z,292
2017-12-05T07:45:03.057Z,308
2017-12-05T07:46:13.315Z,312
2017-12-05T07:47:23.662Z,288
2017-12-05T07:48:33.653Z,280
2017-12-05T07:49:43.442Z,284
2017-12-05T07:50:53.569Z,340
2017-12-05T07:52:03.652Z,380
2017-12-05T07:53:13.973Z,344
2017-12-05T07:54:24.292Z,324
2017-12-05T07:55:34.563Z,544
2017-12-05T07:56:44.865Z,564
2017-12-05T07:57:55.157Z,504
2017-12-05T07:59:05.427Z,596
2017-12-05T08:00:15.744Z,516
2017-12-05T08:01:26.037Z,512
2017-12-05T08:02:36.029Z,504
2017-12-05T08:03:46.296Z,552
2017-12-05T08:04:56.612Z,556
2017-12-05T08:06:06.610Z,564
2017-12-05T08:07:16.826Z,536
2017-12-05T08:08:26.817Z,628
2017-12-05T08:09:36.954Z,620
2017-12-05T08:10:47.321Z,740
2017-12-05T08:11:57.559Z,692
2017-12-05T08:13:07.554Z,796
2017-12-05T08:14:17.825Z,948
2017-12-05T08:15:28.185Z,1016
2017-12-05T08:16:38.587Z,956
2017-12-05T08:17:48.858Z,856
2017-12-05T08:18:59.127Z,720
2017-12-05T08:20:08.970Z,696
2017-12-05T08:21:19.053Z,644
2017-12-05T08:22:29.088Z,596
2017-12-05T08:23:39.632Z,636
2017-12-05T08:24:49.583Z,616
2017-12-05T08:25:59.907Z,640
2017-12-05T08:27:10.217Z,736
2017-12-05T08:28:20.490Z,608
2017-12-05T08:29:31.065Z,600
2017-12-05T08:30:41.097Z,644
2017-12-05T08:31:51.419Z,764
2017-12-05T08:33:01.708Z,828
2017-12-05T08:34:11.806Z,700
2017-12-05T08:35:22.100Z,724
2017-12-05T08:36:32.207Z,712
2017-12-05T08:37:42.518Z,736
2017-12-05T08:38:52.697Z,676
2017-12-05T08:40:03.021Z,696
2017-12-05T08:41:13.609Z,724
2017-12-05T08:42:24.841Z,772
2017-12-05T08:43:35.096Z,776
2017-12-05T08:44:45.495Z,952
2017-12-05T08:45:55.779Z,892
2017-12-05T08:47:06.101Z,1004
2017-12-05T08:48:16.099Z,912
2017-12-05T08:49:26.201Z,876
2017-12-05T08:50:36.205Z,960
2017-12-05T08:51:46.480Z,916
2017-12-05T08:52:56.763Z,988
2017-12-05T08:54:06.780Z,1052
2017-12-05T08:55:16.572Z,1004
2017-12-05T08:56:27.062Z,1004
2017-12-05T08:57:37.333Z,1036
2017-12-05T08:58:47.462Z,1784
2017-12-05T08:59:57.186Z,2000
2017-12-05T09:01:07.184Z,1376
2017-12-05T09:02:17.567Z,1292
2017-12-05T09:03:27.942Z,3100
2017-12-05T09:04:38.040Z,2592
2017-12-05T09:05:48.095Z,2568
2017-12-05T09:06:58.285Z,3604
2017-12-05T09:08:08.387Z,3944
2017-12-05T09:09:18.659Z,4864
2017-12-05T09:10:28.927Z,3824
2017-12-05T09:11:39.231Z,2948
2017-12-05T09:12:49.648Z,2888
2017-12-05T09:13:59.973Z,2380
2017-12-05T09:15:10.072Z,2320
2017-12-05T09:16:20.339Z,1988
2017-12-05T09:17:30.664Z,1852
2017-12-05T09:18:40.954Z,1484
2017-12-05T09:19:50.957Z,1856
2017-12-05T09:21:01.269Z,1504
2017-12-05T09:22:11.549Z,1440
2017-12-05T09:23:22.062Z,1448
2017-12-05T09:24:32.063Z,1612
2017-12-05T09:25:42.469Z,1612
2017-12-05T09:26:52.887Z,1392
2017-12-05T09:28:02.952Z,1508
2017-12-05T09:29:13.110Z,1608
2017-12-05T09:30:23.727Z,1264
2017-12-05T09:31:33.750Z,1496
2017-12-05T09:32:43.828Z,1944
2017-12-05T09:33:53.852Z,1508
2017-12-05T09:35:04.178Z,1580
2017-12-05T09:36:14.519Z,1304
2017-12-05T09:37:24.519Z,1628
2017-12-05T09:38:35.017Z,2140
2017-12-05T09:39:44.996Z,1704
2017-12-05T09:40:55.592Z,1508
2017-12-05T09:42:05.596Z,1544
2017-12-05T09:43:15.537Z,2228
2017-12-05T09:44:25.848Z,2480
2017-12-05T09:45:36.250Z,3196
2017-12-05T09:46:46.541Z,3668
2017-12-05T09:47:56.540Z,3640
2017-12-05T09:49:06.835Z,4740
2017-12-05T09:50:16.891Z,3820
2017-12-05T09:51:27.158Z,3900
2017-12-05T09:52:37.180Z,3792
2017-12-05T09:53:47.461Z,4520
2017-12-05T09:54:57.346Z,5032
2017-12-05T09:56:07.698Z,4760
2017-12-05T09:57:17.993Z,5320
2017-12-05T09:58:28.910Z,4920
2017-12-05T09:59:39.158Z,3460
2017-12-05T10:00:49.170Z,3592
2017-12-05T10:01:59.506Z,3728
2017-12-05T10:03:09.816Z,3672
2017-12-05T10:04:20.112Z,4108
2017-12-05T10:05:30.392Z,4052
2017-12-05T10:06:40.713Z,3244
2017-12-05T10:07:50.989Z,2780
2017-12-05T10:09:00.985Z,2536
2017-12-05T10:10:11.251Z,1636
2017-12-05T10:11:21.634Z,1344
2017-12-05T10:12:31.994Z,1816
2017-12-05T10:13:41.757Z,2020
2017-12-05T10:14:52.079Z,3116
2017-12-05T10:16:02.091Z,3156
2017-12-05T10:17:12.552Z,3076
2017-12-05T10:18:22.837Z,3936
2017-12-05T10:19:33.137Z,4084
2017-12-05T10:20:43.478Z,3136
2017-12-05T10:21:53.706Z,5012
2017-12-05T10:23:04.026Z,4132
2017-12-05T10:24:14.283Z,3480
2017-12-05T10:25:24.553Z,3680
2017-12-05T10:26:34.327Z,4312
2017-12-05T10:27:44.234Z,3656
2017-12-05T10:28:55.246Z,3656
2017-12-05T10:30:05.504Z,3020
2017-12-05T10:31:15.514Z,3772
2017-12-05T10:32:25.841Z,3400
2017-12-05T10:33:36.105Z,2552
2017-12-05T10:34:47.075Z,3904
2017-12-05T10:35:57.395Z,3176
2017-12-05T10:37:07.680Z,3736
2017-12-05T10:38:17.993Z,2472
2017-12-05T10:39:28.286Z,2736
2017-12-05T10:40:38.578Z,3036
2017-12-05T10:41:48.950Z,2788
2017-12-05T10:42:58.976Z,2752
2017-12-05T10:44:08.951Z,3764
2017-12-05T10:45:19.292Z,3660
2017-12-05T10:46:29.286Z,2200
2017-12-05T10:47:39.594Z,3160
2017-12-05T10:48:49.376Z,3652
2017-12-05T10:49:59.639Z,2740
2017-12-05T10:51:09.965Z,3388
2017-12-05T10:52:20.356Z,2168
2017-12-05T10:53:30.625Z,2140
2017-12-05T10:54:40.927Z,1512
2017-12-05T10:55:50.942Z,1284
2017-12-05T10:57:01.215Z,1136
2017-12-05T10:58:11.531Z,1248
2017-12-05T10:59:21.283Z,1348
2017-12-05T11:00:31.787Z,1216
2017-12-05T11:01:41.824Z,1020
2017-12-05T11:02:52.097Z,1172
2017-12-05T11:04:02.377Z,1120
2017-12-05T11:05:12.296Z,1168
2017-12-05T11:06:22.647Z,1276
2017-12-05T11:07:32.961Z,1640
2017-12-05T11:08:43.279Z,1304
2017-12-05T11:09:53.543Z,1708
2017-12-05T11:11:03.817Z,1416
2017-12-05T11:12:14.147Z,1244
2017-12-05T11:13:24.418Z,1348
2017-12-05T11:14:34.704Z,1180
2017-12-05T11:15:45.061Z,1012
2017-12-05T11:16:55.336Z,1068
2017-12-05T11:18:05.642Z,992
2017-12-05T11:19:15.695Z,876
2017-12-05T11:20:25.962Z,848
2017-12-05T11:21:36.456Z,1096
2017-12-05T11:22:46.766Z,1256
2017-12-05T11:23:57.081Z,1376
2017-12-05T11:25:07.363Z,1108
2017-12-05T11:26:17.655Z,944
2017-12-05T11:27:28.039Z,872
2017-12-05T11:28:38.349Z,912
2017-12-05T11:29:49.637Z,912
2017-12-05T11:30:59.792Z,936
2017-12-05T11:32:10.073Z,916
2017-12-05T11:33:20.382Z,984
2017-12-05T11:34:30.673Z,776
2017-12-05T11:35:40.429Z,864
2017-12-05T11:36:50.758Z,1176
2017-12-05T11:38:00.759Z,1432
2017-12-05T11:39:10.788Z,1632
2017-12-05T11:40:21.131Z,1540
2017-12-05T11:41:31.399Z,1980
2017-12-05T11:42:41.686Z,2488
2017-12-05T11:43:52.062Z,1952
2017-12-05T11:45:02.368Z,1800
2017-12-05T11:46:12.640Z,1564
2017-12-05T11:47:22.694Z,2144
2017-12-05T11:48:33.022Z,2696
2017-12-05T11:49:42.764Z,3180
2017-12-05T11:50:52.773Z,2928
2017-12-05T11:52:02.684Z,2896
2017-12-05T11:53:13.947Z,4232
2017-12-05T11:54:56.117Z,5440
2017-12-05T11:56:06.428Z,5012
2017-12-05T11:57:16.717Z,4320
2017-12-05T11:58:27.033Z,3340
2017-12-05T11:59:37.302Z,2352
2017-12-05T12:00:46.964Z,1816
2017-12-05T12:01:58.336Z,2072
2017-12-05T12:03:08.890Z,1288
2017-12-05T12:04:19.161Z,888
2017-12-05T12:05:29.263Z,1444
2017-12-05T12:06:39.351Z,1204
2017-12-05T12:07:49.670Z,1192
2017-12-05T12:08:59.978Z,1292
2017-12-05T12:10:10.288Z,1260
2017-12-05T12:11:20.044Z,1348
2017-12-05T12:12:30.379Z,1800
2017-12-05T12:13:40.683Z,2540
2017-12-05T12:14:51.142Z,2956
2017-12-05T12:16:01.403Z,2920
2017-12-05T12:17:11.170Z,2916
2017-12-05T12:18:21.447Z,2984
2017-12-05T12:19:31.742Z,3204
2017-12-05T12:20:42.023Z,3168
2017-12-05T12:21:52.400Z,2840
2017-12-05T12:23:02.724Z,2688
2017-12-05T12:24:12.984Z,2404
2017-12-05T12:25:23.075Z,2016
2017-12-05T12:26:33.375Z,2020
2017-12-05T12:27:43.297Z,2208
2017-12-05T12:28:53.628Z,1980
2017-12-05T12:30:03.903Z,1712
2017-12-05T12:31:13.907Z,1732
2017-12-05T12:32:23.914Z,1796
2017-12-05T12:33:33.935Z,1924
2017-12-05T12:34:44.325Z,2252
2017-12-05T12:35:54.316Z,2880
2017-12-05T12:37:03.981Z,2512
2017-12-05T12:38:14.961Z,2088
2017-12-05T12:39:25.001Z,2100
2017-12-05T12:40:35.484Z,1928
2017-12-05T12:41:45.762Z,1888
2017-12-05T12:42:55.501Z,2092
2017-12-05T12:44:05.772Z,2220
2017-12-05T12:45:15.831Z,2584
2017-12-05T12:46:26.226Z,2524
2017-12-05T12:47:36.516Z,2484
2017-12-05T12:48:47.075Z,2716
2017-12-05T12:49:57.458Z,2448
2017-12-05T12:51:07.737Z,2356
2017-12-05T12:52:18.268Z,2140
2017-12-05T12:53:28.551Z,2360
2017-12-05T12:54:38.691Z,2772
2017-12-05T12:55:48.659Z,2096
2017-12-05T12:56:58.966Z,2388
2017-12-05T12:58:08.974Z,2612
2017-12-05T12:59:19.262Z,2644
2017-12-05T13:00:29.344Z,2008
2017-12-05T13:01:39.708Z,1788
2017-12-05T13:02:50.770Z,1780
2017-12-05T13:04:00.885Z,2080
2017-12-05T13:05:11.200Z,2080
2017-12-05T13:06:21.634Z,2308
2017-12-05T13:07:32.472Z,1956
2017-12-05T13:08:42.822Z,1804
2017-12-05T13:09:53.115Z,1792
2017-12-05T13:11:03.413Z,1756
2017-12-05T13:12:13.694Z,1676
2017-12-05T13:13:24.010Z,1696
2017-12-05T13:14:34.066Z,1780
2017-12-05T13:15:44.360Z,1484
2017-12-05T13:16:54.510Z,1752
2017-12-05T13:18:04.586Z,2396
2017-12-05T13:19:14.939Z,2500
2017-12-05T13:20:25.414Z,2480
2017-12-05T13:21:35.716Z,2140
2017-12-05T13:22:46.055Z,1984
2017-12-05T13:23:56.326Z,1648
2017-12-05T13:25:06.601Z,1620
2017-12-05T13:26:16.664Z,1468
2017-12-05T13:27:27.913Z,1656
2017-12-05T13:29:10.352Z,1936
2017-12-05T13:30:20.919Z,1764
2017-12-05T13:31:31.234Z,1900
2017-12-05T13:32:41.119Z,2200
2017-12-05T13:33:51.112Z,2024
2017-12-05T13:35:00.967Z,1616
2017-12-05T13:36:10.985Z,1344
2017-12-05T13:37:21.011Z,1736
2017-12-05T13:38:31.034Z,2112
2017-12-05T13:39:41.326Z,1968
2017-12-05T13:40:51.598Z,1904
2017-12-05T13:42:01.870Z,2072
2017-12-05T13:43:11.906Z,2020
2017-12-05T13:44:21.896Z,1592
2017-12-05T13:45:32.260Z,1540
2017-12-05T13:46:41.987Z,1856
2017-12-05T13:47:52.366Z,2004
2017-12-05T13:49:02.672Z,2056
2017-12-05T13:50:12.944Z,2228
2017-12-05T13:51:23.635Z,2244
2017-12-05T13:52:33.940Z,1652
2017-12-05T13:53:44.243Z,1320
2017-12-05T13:54:54.682Z,1224
2017-12-05T13:56:04.460Z,1092
2017-12-05T13:57:14.722Z,1136
2017-12-05T13:58:24.728Z,968
2017-12-05T13:59:34.672Z,960
2017-12-05T14:00:44.984Z,776
2017-12-05T14:01:55.038Z,788
2017-12-05T14:03:04.785Z,620
2017-12-05T14:04:14.883Z,668
2017-12-05T14:05:25.187Z,552
2017-12-05T14:06:35.461Z,588
2017-12-05T14:07:45.848Z,628
2017-12-05T14:08:56.125Z,596
2017-12-05T14:10:06.465Z,632
2017-12-05T14:11:31.294Z,640
2017-12-05T14:12:41.670Z,752
2017-12-05T14:13:52.381Z,768
2017-12-05T14:15:02.667Z,684
2017-12-05T14:16:12.600Z,652
2017-12-05T14:17:23.034Z,500
2017-12-05T14:18:33.339Z,436
2017-12-05T14:19:43.618Z,368
2017-12-05T14:20:53.890Z,284
2017-12-05T14:22:04.196Z,228
2017-12-05T14:23:14.671Z,176
2017-12-05T14:24:24.790Z,156
2017-12-05T14:25:35.119Z,160
2017-12-05T14:26:45.417Z,160
2017-12-05T14:27:55.623Z,164
2017-12-05T14:29:06.930Z,192
2017-12-05T14:30:17.301Z,172
2017-12-05T14:31:26.691Z,168
2017-12-05T14:32:37.014Z,152
2017-12-05T14:33:47.400Z,192
2017-12-05T14:34:57.983Z,248
2017-12-05T14:36:08.274Z,252
2017-12-05T14:37:18.711Z,280
2017-12-05T14:38:28.887Z,324
2017-12-05T14:39:39.197Z,292
2017-12-05T14:40:49.479Z,256
2017-12-05T14:41:59.791Z,156
2017-12-05T14:43:09.810Z,164
2017-12-05T14:44:20.140Z,112
2017-12-05T14:45:30.240Z,96
2017-12-05T14:46:40.272Z,84
2017-12-05T14:47:50.614Z,100
2017-12-05T14:49:00.945Z,88
2017-12-05T14:50:11.249Z,92
2017-12-05T14:51:21.545Z,100
2017-12-05T14:52:31.299Z,92
2017-12-05T14:53:41.589Z,112
2017-12-05T14:54:51.706Z,132
2017-12-05T14:56:01.540Z,128
2017-12-05T14:57:11.798Z,144
2017-12-05T14:58:21.825Z,136
2017-12-05T14:59:31.849Z,148
2017-12-05T15:00:41.837Z,152
2017-12-05T15:01:52.021Z,144
2017-12-05T15:03:01.815Z,132
2017-12-05T15:04:11.877Z,124
2017-12-05T15:05:21.885Z,116
2017-12-05T15:06:32.289Z,108
2017-12-05T15:07:42.589Z,92
2017-12-05T15:08:52.844Z,80
2017-12-05T15:10:03.304Z,64
2017-12-05T15:11:13.703Z,60
2017-12-05T15:12:24.078Z,60
2017-12-05T15:13:34.354Z,56
2017-12-05T15:14:44.385Z,52
2017-12-05T15:15:54.461Z,44
2017-12-05T15:17:04.802Z,40
2017-12-05T15:18:14.960Z,32
2017-12-05T15:19:24.965Z,28
2017-12-05T15:20:34.339Z,24
2017-12-05T15:21:44.700Z,24
2017-12-05T15:22:55.041Z,16
2017-12-05T15:24:04.784Z,12
2017-12-05T15:25:14.928Z,12
2017-12-05T15:26:25.268Z,12
2017-12-05T15:27:35.579Z,8
2017-12-05T15:28:45.862Z,8
2017-12-05T15:29:56.267Z,8
2017-12-05T15:31:05.909Z,4
2017-12-05T15:32:15.968Z,4
2017-12-05T15:33:26.289Z,4
2017-12-05T15:34:36.288Z,4
2017-12-05T15:35:46.589Z,0
2017-12-05T15:36:57.029Z,4
2017-12-05T15:38:07.309Z,0
2017-12-05T15:39:17.321Z,0
2017-12-05T15:40:27.621Z,4
2017-12-05T15:41:37.634Z,0
2017-12-05T15:42:47.931Z,0
2017-12-05T15:43:57.935Z,0
2017-12-05T15:45:08.276Z,0
2017-12-05T15:46:18.635Z,0
2017-12-05T15:47:28.679Z,0
2017-12-05T15:48:38.956Z,0
2017-12-05T15:49:49.011Z,0
2017-12-05T15:50:59.352Z,0
2017-12-05T15:52:09.027Z,0
2017-12-05T15:53:19.329Z,0
2017-12-05T15:54:29.321Z,0
2017-12-05T15:55:39.634Z,0
2017-12-05T15:56:49.934Z,0
2017-12-05T15:57:59.955Z,0
2017-12-05T15:59:10.251Z,0
2017-12-05T16:00:20.239Z,0
2017-12-05T16:01:30.533Z,0
2017-12-05T16:02:41.143Z,0
2017-12-05T16:03:51.406Z,0
2017-12-05T16:05:01.082Z,0
2017-12-05T16:06:11.361Z,0
2017-12-05T16:07:21.625Z,0
2017-12-05T16:08:31.894Z,0
2017-12-05T16:09:42.079Z,0
2017-12-05T16:10:52.730Z,0
2017-12-05T16:12:02.868Z,0
2017-12-05T16:13:12.849Z,0
2017-12-05T16:14:22.917Z,0
2017-12-05T16:15:32.999Z,0
2017-12-05T16:16:43.198Z,0
2017-12-05T16:17:53.662Z,0
2017-12-05T16:19:04.643Z,0
2017-12-05T16:20:15.226Z,0
2017-12-05T16:21:25.734Z,0
2017-12-05T16:22:36.231Z,0
2017-12-05T16:23:46.720Z,0
2017-12-05T16:24:57.746Z,0
2017-12-05T16:26:09.149Z,0
2017-12-05T16:27:20.422Z,0
2017-12-05T16:28:31.010Z,0
2017-12-05T16:29:41.357Z,0
2017-12-05T16:30:51.584Z,0
2017-12-05T16:32:02.254Z,0
2017-12-05T16:33:13.117Z,0